Time;durP1;ratioP1;P1;durP2;ratioP2;P2;SDS_P1;SDS_P2;PMS_P1;PMS_P2;Temp;Humidity;BMP_temperature;BMP_pressure;BME280_temperature;BME280_humidity;BME280_pressure;Samples;Min_cycle;Max_cycle;Signal;HPM_P1;HPM_P2
2023/09/27 00:00:32;;;;;;;14.90;12.57;;;16.90;99.90;;;;;;6152208;23;20336;-77
2023/09/27 00:02:58;;;;;;;15.73;14.13;;;17.00;99.90;;;;;;6124945;23;20006;-77
2023/09/27 00:05:24;;;;;;;14.45;12.75;;;17.00;99.90;;;;;;6125482;23;20061;-77
2023/09/27 00:07:53;;;;;;;13.85;12.23;;;17.10;99.90;;;;;;6124784;23;20064;-77
2023/09/27 00:10:19;;;;;;;15.05;12.95;;;17.10;99.90;;;;;;6151825;23;20073;-77
2023/09/27 00:12:48;;;;;;;15.10;13.05;;;17.10;99.90;;;;;;6151291;23;20029;-76
2023/09/27 00:15:14;;;;;;;14.38;12.95;;;17.20;99.90;;;;;;6151323;23;20005;-76
2023/09/27 00:17:41;;;;;;;18.75;14.30;;;17.20;99.90;;;;;;6151629;23;20005;-76
2023/09/27 00:20:15;;;;;;;15.32;13.13;;;17.20;99.90;;;;;;6125334;23;20069;-77
2023/09/27 00:22:42;;;;;;;13.75;12.45;;;17.30;99.90;;;;;;6124660;23;20090;-77
2023/09/27 00:25:11;;;;;;;13.07;11.77;;;17.30;99.90;;;;;;6151607;23;20001;-77
2023/09/27 00:27:37;;;;;;;15.18;13.57;;;17.30;99.90;;;;;;6151522;23;20348;-77
2023/09/27 00:30:07;;;;;;;15.40;12.43;;;17.30;99.90;;;;;;6151210;23;20002;-76
2023/09/27 00:32:33;;;;;;;13.80;12.40;;;17.40;99.90;;;;;;6151436;23;20068;-77
2023/09/27 00:34:59;;;;;;;13.85;12.10;;;17.40;99.90;;;;;;6149090;23;20009;-77
2023/09/27 00:37:25;;;;;;;16.42;12.18;;;17.40;99.90;;;;;;6148177;23;20005;-77
2023/09/27 00:39:51;;;;;;;13.57;12.18;;;17.40;99.90;;;;;;6123971;23;20467;-77
2023/09/27 00:42:16;;;;;;;13.75;12.35;;;17.40;99.90;;;;;;6149781;23;20009;-77
2023/09/27 00:44:43;;;;;;;13.65;12.15;;;17.40;99.90;;;;;;6150360;23;20028;-76
2023/09/27 00:47:09;;;;;;;13.70;12.25;;;17.40;99.90;;;;;;6150198;23;20006;-76
2023/09/27 00:49:35;;;;;;;14.73;13.25;;;17.30;99.90;;;;;;6150802;23;20077;-76
2023/09/27 00:52:01;;;;;;;16.27;12.85;;;17.20;99.90;;;;;;6149812;23;20033;-77
2023/09/27 00:54:28;;;;;;;15.27;13.70;;;17.20;99.90;;;;;;6124976;23;20009;-76
2023/09/27 00:56:54;;;;;;;13.57;12.15;;;17.10;99.90;;;;;;6150294;23;20076;-77
2023/09/27 00:59:20;;;;;;;14.82;13.40;;;17.10;99.90;;;;;;6150734;23;20103;-76
2023/09/27 01:01:46;;;;;;;17.00;12.57;;;17.10;99.90;;;;;;6150424;23;20361;-77
2023/09/27 01:04:13;;;;;;;14.77;11.35;;;17.00;99.90;;;;;;6150525;23;20014;-77
2023/09/27 01:06:40;;;;;;;15.95;12.73;;;16.90;99.90;;;;;;6124034;23;20005;-77
2023/09/27 01:09:06;;;;;;;13.88;12.57;;;16.90;99.90;;;;;;6150185;23;20001;-76
2023/09/27 01:11:32;;;;;;;15.38;13.88;;;16.90;99.90;;;;;;6151126;23;20012;-76
2023/09/27 01:13:58;;;;;;;16.15;14.15;;;16.80;99.90;;;;;;6150378;23;20006;-77
2023/09/27 01:16:24;;;;;;;17.10;15.38;;;16.80;99.90;;;;;;6150530;23;20013;-77
2023/09/27 01:18:49;;;;;;;13.40;12.10;;;16.70;99.90;;;;;;6150464;23;20001;-77
2023/09/27 01:21:19;;;;;;;18.20;15.02;;;16.70;99.90;;;;;;6149993;23;19997;-77
2023/09/27 01:23:48;;;;;;;18.77;14.57;;;16.70;99.90;;;;;;6150740;23;20084;-76
2023/09/27 01:26:16;;;;;;;15.90;13.98;;;16.60;99.90;;;;;;6124575;23;20007;-77
2023/09/27 01:28:45;;;;;;;14.60;13.10;;;16.60;99.90;;;;;;6150873;23;20009;-77
2023/09/27 01:31:10;;;;;;;15.48;13.95;;;16.50;99.90;;;;;;6124129;23;20002;-77
2023/09/27 01:33:36;;;;;;;17.85;14.50;;;16.50;99.90;;;;;;6151608;23;20001;-77
2023/09/27 01:36:03;;;;;;;18.73;16.77;;;16.40;99.90;;;;;;6151450;23;20008;-77
2023/09/27 01:38:30;;;;;;;17.40;15.60;;;16.40;99.90;;;;;;6153003;23;19997;-77
2023/09/27 01:40:55;;;;;;;18.63;16.70;;;16.30;99.90;;;;;;6125788;23;20009;-76
2023/09/27 01:43:21;;;;;;;16.85;15.10;;;16.20;99.90;;;;;;6152493;23;20490;-77
2023/09/27 01:45:46;;;;;;;16.92;15.40;;;16.20;99.90;;;;;;6149733;23;20335;-76
2023/09/27 01:48:12;;;;;;;15.55;13.60;;;16.20;99.90;;;;;;6152227;23;20008;-77
2023/09/27 01:50:38;;;;;;;20.27;16.83;;;16.10;99.90;;;;;;6151677;23;20355;-76
2023/09/27 01:53:04;;;;;;;15.65;14.05;;;16.10;99.90;;;;;;6152088;23;20327;-77
2023/09/27 01:55:29;;;;;;;18.45;16.55;;;16.00;99.90;;;;;;6152512;23;20025;-76
2023/09/27 01:57:55;;;;;;;17.73;15.90;;;16.00;99.90;;;;;;6151887;23;20006;-76
2023/09/27 02:00:21;;;;;;;16.98;15.38;;;16.00;99.90;;;;;;6152294;23;20009;-76
2023/09/27 02:02:55;;;;;;;20.27;18.17;;;16.00;99.90;;;;;;6152009;23;20008;-76
2023/09/27 02:05:21;;;;;;;18.77;16.98;;;15.90;99.90;;;;;;6152190;23;20021;-76
2023/09/27 02:07:47;;;;;;;16.40;14.60;;;15.90;99.90;;;;;;6152129;23;20009;-76
2023/09/27 02:10:13;;;;;;;16.63;15.00;;;15.80;99.90;;;;;;6152245;23;20037;-76
2023/09/27 02:12:40;;;;;;;18.98;16.98;;;15.80;99.90;;;;;;6152081;23;20012;-75
2023/09/27 02:15:09;;;;;;;16.10;14.55;;;15.80;99.90;;;;;;6151536;23;20002;-76
2023/09/27 02:17:36;;;;;;;17.38;15.68;;;15.80;99.90;;;;;;6152134;23;20005;-76
2023/09/27 02:20:17;;;;;;;18.40;16.60;;;15.70;99.90;;;;;;6150982;23;20005;-76
2023/09/27 02:22:44;;;;;;;21.02;19.05;;;15.70;99.90;;;;;;6152049;23;20317;-76
2023/09/27 02:25:11;;;;;;;18.95;16.98;;;15.70;99.90;;;;;;6151918;23;20428;-76
2023/09/27 02:27:37;;;;;;;17.15;15.55;;;15.70;99.90;;;;;;6152203;23;20006;-76
2023/09/27 02:30:06;;;;;;;17.92;16.02;;;15.60;99.90;;;;;;6151876;23;20002;-76
2023/09/27 02:32:32;;;;;;;17.92;16.15;;;15.70;99.90;;;;;;6152117;23;20048;-76
2023/09/27 02:34:57;;;;;;;20.67;18.52;;;15.60;99.90;;;;;;6151273;23;20013;-76
2023/09/27 02:37:24;;;;;;;20.25;18.25;;;15.60;99.90;;;;;;6151864;23;20032;-76
2023/09/27 02:39:49;;;;;;;21.08;18.60;;;15.50;99.90;;;;;;6151794;23;20002;-76
2023/09/27 02:42:15;;;;;;;20.75;18.55;;;15.60;99.90;;;;;;6151674;23;20093;-76
2023/09/27 02:44:40;;;;;;;20.48;18.33;;;15.50;99.90;;;;;;6151468;23;20076;-77
2023/09/27 02:47:07;;;;;;;20.63;18.80;;;15.50;99.90;;;;;;6151744;23;20796;-77
2023/09/27 02:49:35;;;;;;;17.60;15.95;;;15.50;99.90;;;;;;6125515;23;20013;-76
2023/09/27 02:52:00;;;;;;;20.05;18.10;;;15.50;99.90;;;;;;6125456;23;20005;-76
2023/09/27 02:54:27;;;;;;;19.23;17.42;;;15.40;99.90;;;;;;6151673;23;20024;-76
2023/09/27 02:56:52;;;;;;;21.90;19.63;;;15.40;99.90;;;;;;6125288;23;20009;-76
2023/09/27 02:59:18;;;;;;;20.55;18.45;;;15.40;99.90;;;;;;6151629;23;20301;-76
2023/09/27 03:01:43;;;;;;;22.30;20.13;;;15.40;99.90;;;;;;6151635;23;20498;-76
2023/09/27 03:04:10;;;;;;;19.45;17.52;;;15.30;99.90;;;;;;6150638;23;20021;-76
2023/09/27 03:06:41;;;;;;;21.23;19.23;;;15.40;99.90;;;;;;6125644;23;20005;-75
2023/09/27 03:09:08;;;;;;;18.75;17.10;;;15.30;99.90;;;;;;6151434;23;20294;-76
2023/09/27 03:11:34;;;;;;;20.75;18.83;;;15.30;99.90;;;;;;6151843;23;20001;-76
2023/09/27 03:14:00;;;;;;;23.23;20.90;;;15.30;99.90;;;;;;6151481;23;20033;-76
2023/09/27 03:16:26;;;;;;;20.58;18.55;;;15.30;99.90;;;;;;6151091;23;20124;-76
2023/09/27 03:18:51;;;;;;;20.40;18.55;;;15.20;99.90;;;;;;6151297;23;20424;-76
2023/09/27 03:21:17;;;;;;;18.70;17.00;;;15.20;99.90;;;;;;6125520;23;20001;-76
2023/09/27 03:23:43;;;;;;;21.23;18.98;;;15.20;99.90;;;;;;6151374;23;20514;-76
2023/09/27 03:26:09;;;;;;;20.48;18.40;;;15.20;99.90;;;;;;6151248;23;20056;-78
2023/09/27 03:28:35;;;;;;;19.98;17.90;;;15.20;99.90;;;;;;6125488;23;20001;-76
2023/09/27 03:31:02;;;;;;;18.10;16.30;;;15.10;99.90;;;;;;6150516;23;20001;-76
2023/09/27 03:33:27;;;;;;;19.08;17.17;;;15.10;99.90;;;;;;6125444;23;20012;-76
2023/09/27 03:35:53;;;;;;;20.77;18.85;;;15.00;99.90;;;;;;6150688;23;20002;-76
2023/09/27 03:38:19;;;;;;;20.55;18.45;;;15.10;99.90;;;;;;6151015;23;20001;-76
2023/09/27 03:40:45;;;;;;;21.58;19.50;;;15.10;99.90;;;;;;6151197;23;20048;-76
2023/09/27 03:43:10;;;;;;;21.40;19.45;;;15.10;99.90;;;;;;6150872;23;20088;-76
2023/09/27 03:45:36;;;;;;;21.95;19.58;;;15.10;99.90;;;;;;6150527;23;20014;-76
2023/09/27 03:48:05;;;;;;;17.42;15.88;;;15.10;99.90;;;;;;6150894;23;20006;-76
2023/09/27 03:50:30;;;;;;;18.17;16.40;;;15.10;99.90;;;;;;6151606;23;20001;-76
2023/09/27 03:52:56;;;;;;;20.50;18.58;;;15.00;99.90;;;;;;6151050;23;20001;-76
2023/09/27 03:55:22;;;;;;;21.35;19.33;;;15.00;99.90;;;;;;6150934;23;20020;-76
2023/09/27 03:57:47;;;;;;;18.48;16.88;;;15.00;99.90;;;;;;6150658;23;20009;-76
2023/09/27 04:00:14;;;;;;;20.20;18.20;;;15.00;99.90;;;;;;6124103;23;20009;-76
2023/09/27 04:02:41;;;;;;;20.98;18.98;;;15.00;99.90;;;;;;6124790;23;20009;-76
2023/09/27 04:05:07;;;;;;;21.02;19.10;;;15.00;99.90;;;;;;6124087;23;20071;-75
2023/09/27 04:07:32;;;;;;;19.13;17.33;;;15.00;99.90;;;;;;6125140;23;20009;-76
2023/09/27 04:10:00;;;;;;;23.90;21.52;;;15.00;99.90;;;;;;6121095;23;20020;-75
2023/09/27 04:12:25;;;;;;;23.60;20.85;;;15.00;99.90;;;;;;6121925;23;20002;-76
2023/09/27 04:14:51;;;;;;;20.10;18.25;;;15.00;99.90;;;;;;6148670;23;20010;-76
2023/09/27 04:17:17;;;;;;;21.85;19.88;;;14.90;99.90;;;;;;6150444;23;20048;-76
2023/09/27 04:19:43;;;;;;;21.23;19.13;;;14.90;99.90;;;;;;6123978;23;20040;-76
2023/09/27 04:22:08;;;;;;;22.65;20.27;;;14.90;99.90;;;;;;6150571;23;20064;-76
2023/09/27 04:24:34;;;;;;;21.08;19.05;;;14.90;99.90;;;;;;6150716;23;20013;-76
2023/09/27 04:26:59;;;;;;;22.65;20.48;;;14.90;99.90;;;;;;6150956;23;20006;-76
2023/09/27 04:29:26;;;;;;;19.83;17.98;;;14.90;99.90;;;;;;6150294;23;20013;-76
2023/09/27 04:31:52;;;;;;;22.92;20.73;;;14.90;99.90;;;;;;6150631;23;20001;-76
2023/09/27 04:34:17;;;;;;;21.25;19.30;;;14.90;99.90;;;;;;6150866;23;20002;-76
2023/09/27 04:36:44;;;;;;;23.38;20.38;;;14.90;99.90;;;;;;6124490;23;20447;-75
2023/09/27 04:39:13;;;;;;;21.08;18.98;;;14.80;99.90;;;;;;6150478;23;20005;-76
2023/09/27 04:41:38;;;;;;;21.77;19.48;;;14.80;99.90;;;;;;6124617;23;20013;-76
2023/09/27 04:44:05;;;;;;;19.98;18.05;;;14.80;99.90;;;;;;6131787;23;20020;-76
2023/09/27 04:46:31;;;;;;;18.55;16.80;;;14.80;99.90;;;;;;6180827;23;19997;-76
2023/09/27 04:48:57;;;;;;;20.30;18.20;;;14.80;99.90;;;;;;6180173;23;20000;-76
2023/09/27 04:51:22;;;;;;;21.75;19.52;;;14.80;99.90;;;;;;6153726;23;20383;-76
2023/09/27 04:53:48;;;;;;;21.55;19.48;;;14.70;99.90;;;;;;6153072;23;20012;-76
2023/09/27 04:56:13;;;;;;;22.50;20.35;;;14.70;99.90;;;;;;6180338;23;20008;-76
2023/09/27 04:58:42;;;;;;;20.95;18.52;;;14.70;99.90;;;;;;6153297;23;20009;-76
2023/09/27 05:01:09;;;;;;;22.45;20.27;;;14.70;99.90;;;;;;6180305;23;20008;-76
2023/09/27 05:03:35;;;;;;;20.17;18.20;;;14.70;99.90;;;;;;6180257;23;20088;-76
2023/09/27 05:06:01;;;;;;;21.67;19.67;;;14.70;99.90;;;;;;6180250;23;20112;-76
2023/09/27 05:08:26;;;;;;;22.63;20.48;;;14.70;99.90;;;;;;6182043;23;20008;-76
2023/09/27 05:10:53;;;;;;;20.80;18.80;;;14.70;99.90;;;;;;6183574;23;20085;-76
2023/09/27 05:13:21;;;;;;;22.10;20.10;;;14.70;99.90;;;;;;6156468;23;20002;-75
2023/09/27 05:15:51;;;;;;;21.92;19.75;;;14.70;99.90;;;;;;6183049;23;20001;-76
2023/09/27 05:18:16;;;;;;;21.42;19.33;;;14.70;99.90;;;;;;6182086;23;19997;-76
2023/09/27 05:20:43;;;;;;;26.33;21.70;;;14.60;99.90;;;;;;6182261;23;20295;-77
2023/09/27 05:23:10;;;;;;;22.42;20.08;;;14.60;99.90;;;;;;6156996;23;20009;-76
2023/09/27 05:25:35;;;;;;;20.08;18.33;;;14.70;99.90;;;;;;6183736;23;20119;-77
2023/09/27 05:28:01;;;;;;;24.75;22.25;;;14.70;99.90;;;;;;6183024;23;20077;-76
2023/09/27 05:30:26;;;;;;;23.15;21.00;;;14.70;99.90;;;;;;6183480;23;19997;-77
2023/09/27 05:32:53;;;;;;;23.80;21.45;;;14.70;99.90;;;;;;6182974;23;20009;-76
2023/09/27 05:35:18;;;;;;;26.10;23.58;;;14.70;99.90;;;;;;6154644;23;20009;-76
2023/09/27 05:37:44;;;;;;;21.95;19.77;;;14.70;99.90;;;;;;6181869;23;20431;-76
2023/09/27 05:40:10;;;;;;;21.73;19.52;;;14.70;99.90;;;;;;6154428;23;20076;-76
2023/09/27 05:42:37;;;;;;;21.17;19.08;;;14.80;99.90;;;;;;6181269;23;20004;-76
2023/09/27 05:45:04;;;;;;;21.75;19.80;;;14.80;99.90;;;;;;6154471;23;20009;-77
2023/09/27 05:47:30;;;;;;;25.02;22.85;;;14.80;99.90;;;;;;6181828;23;20011;-76
2023/09/27 05:49:55;;;;;;;21.48;19.52;;;14.80;99.90;;;;;;6181073;23;20005;-76
2023/09/27 05:52:22;;;;;;;22.42;20.23;;;14.80;99.90;;;;;;6155110;23;20071;-76
2023/09/27 05:54:47;;;;;;;18.90;17.17;;;14.80;99.90;;;;;;6155098;23;20100;-77
2023/09/27 05:57:14;;;;;;;23.77;21.52;;;14.80;99.90;;;;;;6156281;23;20032;-76
2023/09/27 05:59:44;;;;;;;23.42;21.23;;;14.80;99.90;;;;;;6183056;23;20008;-76
2023/09/27 06:02:16;;;;;;;20.75;18.98;;;14.80;99.90;;;;;;6182876;23;20427;-76
2023/09/27 06:04:43;;;;;;;22.80;20.65;;;14.80;99.90;;;;;;6156027;23;20013;-76
2023/09/27 06:07:13;;;;;;;22.25;20.08;;;14.80;99.90;;;;;;6182885;23;20281;-76
2023/09/27 06:09:41;;;;;;;20.75;18.75;;;14.90;99.90;;;;;;6156583;23;20005;-76
2023/09/27 06:12:07;;;;;;;24.40;21.70;;;14.90;99.90;;;;;;6182633;23;20012;-76
2023/09/27 06:14:34;;;;;;;22.73;20.65;;;14.90;99.90;;;;;;6183077;23;20079;-78
2023/09/27 06:17:01;;;;;;;26.60;24.00;;;15.00;99.90;;;;;;6156567;23;20005;-77
2023/09/27 06:19:26;;;;;;;26.42;23.92;;;14.90;99.90;;;;;;6155509;23;20013;-76
2023/09/27 06:21:52;;;;;;;26.38;23.83;;;15.00;99.90;;;;;;6181498;23;20028;-76
2023/09/27 06:24:17;;;;;;;26.77;24.15;;;15.10;99.90;;;;;;6181024;23;20335;-76
2023/09/27 06:26:43;;;;;;;25.42;21.83;;;15.10;99.90;;;;;;6181372;23;20439;-79
2023/09/27 06:29:09;;;;;;;24.08;21.65;;;15.20;99.90;;;;;;6181554;23;20031;-77
2023/09/27 06:31:35;;;;;;;28.75;25.85;;;15.20;99.90;;;;;;6181628;23;20009;-77
2023/09/27 06:34:01;;;;;;;29.85;26.67;;;15.30;99.90;;;;;;6181312;23;20009;-76
2023/09/27 06:36:29;;;;;;;26.90;24.30;;;15.30;99.90;;;;;;6154923;23;20444;-76
2023/09/27 06:38:59;;;;;;;25.35;22.95;;;15.30;99.90;;;;;;6181128;23;20008;-76
2023/09/27 06:41:24;;;;;;;30.13;27.33;;;15.40;99.90;;;;;;6181114;23;20051;-76
2023/09/27 06:43:50;;;;;;;27.98;25.48;;;15.30;99.90;;;;;;6174572;23;20100;-78
2023/09/27 06:46:17;;;;;;;26.08;23.58;;;15.50;99.90;;;;;;6151829;23;20002;-77
2023/09/27 06:48:43;;;;;;;24.77;22.30;;;15.60;99.90;;;;;;6125018;23;20088;-77
2023/09/27 06:51:11;;;;;;;27.27;24.77;;;15.60;99.90;;;;;;6124038;23;20435;-77
2023/09/27 06:53:38;;;;;;;26.73;24.40;;;15.70;99.90;;;;;;6125668;23;20079;-78
2023/09/27 06:56:05;;;;;;;29.63;26.60;;;15.70;99.90;;;;;;6150725;23;20032;-78
2023/09/27 06:58:31;;;;;;;26.05;23.60;;;15.90;99.90;;;;;;6152045;23;20057;-77
2023/09/27 07:00:57;;;;;;;25.73;23.33;;;15.90;99.90;;;;;;6151617;23;20054;-77
2023/09/27 07:03:27;;;;;;;24.33;22.13;;;16.10;99.90;;;;;;6125439;23;20089;-77
2023/09/27 07:05:53;;;;;;;24.25;22.20;;;16.20;99.90;;;;;;6148273;23;20470;-78
2023/09/27 07:08:19;;;;;;;29.50;26.65;;;16.30;99.90;;;;;;6124011;23;20012;-77
2023/09/27 07:10:45;;;;;;;27.20;24.70;;;16.40;99.90;;;;;;6150933;23;20064;-78
2023/09/27 07:13:10;;;;;;;27.25;24.83;;;16.40;99.90;;;;;;6151351;23;20355;-77
2023/09/27 07:15:37;;;;;;;25.00;22.80;;;16.40;99.90;;;;;;6125098;23;20002;-77
2023/09/27 07:18:03;;;;;;;26.90;24.50;;;16.40;99.90;;;;;;6124431;23;20053;-79
2023/09/27 07:20:33;;;;;;;26.02;23.50;;;16.60;99.90;;;;;;6124996;23;20449;-78
2023/09/27 07:22:59;;;;;;;25.25;22.85;;;16.60;99.90;;;;;;6123345;23;20020;-78
2023/09/27 07:25:25;;;;;;;26.05;23.67;;;16.70;99.90;;;;;;6125054;23;20001;-78
2023/09/27 07:27:54;;;;;;;29.05;26.50;;;16.70;99.90;;;;;;6150536;23;20057;-78
2023/09/27 07:30:26;;;;;;;23.48;21.30;;;16.80;99.90;;;;;;6123957;23;20427;-78
2023/09/27 07:32:52;;;;;;;25.88;23.70;;;16.80;99.90;;;;;;6150945;23;20013;-77
2023/09/27 07:35:18;;;;;;;23.75;21.70;;;16.90;99.90;;;;;;6151520;23;20486;-78
2023/09/27 07:37:44;;;;;;;23.63;21.63;;;16.90;99.90;;;;;;6150370;23;20006;-78
2023/09/27 07:40:13;;;;;;;22.98;20.85;;;17.00;99.90;;;;;;6150916;23;20651;-78
2023/09/27 07:42:43;;;;;;;26.58;24.05;;;17.00;99.90;;;;;;6150758;23;20010;-78
2023/09/27 07:45:20;;;;;;;26.25;23.77;;;17.00;99.90;;;;;;6140824;23;20428;-78
2023/09/27 07:47:46;;;;;;;27.08;24.60;;;17.00;99.90;;;;;;6149099;23;20040;-78
2023/09/27 07:50:12;;;;;;;26.67;23.95;;;17.00;99.90;;;;;;6149044;23;20005;-77
2023/09/27 07:52:37;;;;;;;26.77;24.05;;;17.10;99.90;;;;;;6148334;23;20072;-78
2023/09/27 07:55:04;;;;;;;28.33;25.60;;;17.00;99.90;;;;;;6149273;23;20025;-78
2023/09/27 07:57:30;;;;;;;27.27;24.48;;;17.10;99.90;;;;;;6149633;23;20016;-78
2023/09/27 07:59:56;;;;;;;26.35;24.05;;;17.10;99.90;;;;;;6149063;23;20006;-75
2023/09/27 08:02:21;;;;;;;27.55;24.92;;;17.20;99.90;;;;;;6149341;23;20021;-75
2023/09/27 08:04:49;;;;;;;24.40;22.23;;;17.20;99.90;;;;;;6150776;23;20001;-76
2023/09/27 08:07:14;;;;;;;25.77;23.48;;;17.30;99.90;;;;;;6148528;23;20005;-75
2023/09/27 08:09:40;;;;;;;25.13;22.90;;;17.30;99.90;;;;;;6150755;23;20048;-76
2023/09/27 08:12:06;;;;;;;23.58;21.33;;;17.40;99.90;;;;;;6150534;23;19997;-77
2023/09/27 08:14:36;;;;;;;23.80;21.50;;;17.40;99.90;;;;;;6149529;23;20099;-76
2023/09/27 08:17:02;;;;;;;22.60;20.50;;;17.50;99.90;;;;;;6149568;23;20008;-76
2023/09/27 08:19:29;;;;;;;26.35;24.05;;;17.60;99.90;;;;;;6149572;23;20428;-75
2023/09/27 08:21:56;;;;;;;24.75;22.63;;;17.60;99.90;;;;;;6148413;23;20387;-76
2023/09/27 08:24:22;;;;;;;21.65;19.85;;;17.60;99.90;;;;;;6150991;23;20447;-76
2023/09/27 08:26:48;;;;;;;21.35;19.65;;;17.60;99.90;;;;;;6150275;23;20080;-76
2023/09/27 08:29:13;;;;;;;22.40;20.27;;;17.60;99.90;;;;;;6149507;23;20408;-76
2023/09/27 08:31:39;;;;;;;20.00;18.30;;;17.60;99.90;;;;;;6148885;23;20076;-76
2023/09/27 08:34:05;;;;;;;21.27;19.38;;;17.70;99.90;;;;;;6148164;23;20012;-76
2023/09/27 08:36:31;;;;;;;22.70;20.52;;;17.70;99.90;;;;;;6148898;23;20006;-76
2023/09/27 08:38:56;;;;;;;20.85;18.70;;;17.80;99.90;;;;;;6150274;23;20005;-76
2023/09/27 08:41:23;;;;;;;21.52;19.63;;;17.80;99.90;;;;;;6150049;23;20016;-76
2023/09/27 08:43:50;;;;;;;19.30;17.63;;;17.90;99.90;;;;;;6150101;23;20068;-76
2023/09/27 08:46:18;;;;;;;19.08;17.40;;;17.90;99.90;;;;;;6150040;23;20002;-75
2023/09/27 08:48:44;;;;;;;19.58;17.88;;;18.00;99.90;;;;;;6150610;23;20412;-76
2023/09/27 08:51:10;;;;;;;19.80;18.15;;;18.00;99.90;;;;;;6123221;23;20013;-76
2023/09/27 08:53:38;;;;;;;19.63;17.83;;;18.10;99.90;;;;;;6123427;23;20006;-76
2023/09/27 08:56:06;;;;;;;21.52;19.35;;;18.20;99.90;;;;;;6123943;23;20455;-76
2023/09/27 08:58:34;;;;;;;21.23;19.38;;;18.30;99.90;;;;;;6151176;23;20072;-76
2023/09/27 09:01:00;;;;;;;22.25;20.25;;;18.40;99.90;;;;;;6150630;23;20002;-75
2023/09/27 09:03:26;;;;;;;19.58;17.70;;;18.50;99.90;;;;;;6150186;23;20037;-76
2023/09/27 09:05:52;;;;;;;19.90;18.10;;;18.60;99.90;;;;;;6149090;23;20017;-75
2023/09/27 09:08:19;;;;;;;19.65;17.85;;;18.70;99.90;;;;;;6124132;23;20166;-76
2023/09/27 09:10:45;;;;;;;18.25;16.67;;;18.90;99.90;;;;;;6124048;23;20012;-76
2023/09/27 09:13:11;;;;;;;19.35;17.65;;;19.00;99.90;;;;;;6149959;23;20005;-75
2023/09/27 09:15:40;;;;;;;17.52;16.05;;;19.20;99.90;;;;;;6123320;23;20153;-76
2023/09/27 09:18:11;;;;;;;16.15;14.65;;;19.30;99.90;;;;;;6123619;23;20001;-75
2023/09/27 09:20:49;;;;;;;18.02;15.10;;;19.40;99.90;;;;;;6150230;23;20091;-75
2023/09/27 09:23:34;;;;;;;18.23;16.42;;;19.60;99.90;;;;;;6150151;23;20032;-76
2023/09/27 09:26:01;;;;;;;16.20;14.68;;;19.80;99.90;;;;;;6123738;23;19998;-75
2023/09/27 09:28:27;;;;;;;14.20;12.73;;;20.00;99.90;;;;;;6124691;23;20309;-75
2023/09/27 09:30:55;;;;;;;15.25;13.77;;;20.10;99.90;;;;;;6123413;23;20464;-75
2023/09/27 09:33:22;;;;;;;12.75;11.73;;;20.30;99.90;;;;;;6149953;23;20419;-76
2023/09/27 09:35:50;;;;;;;14.82;13.43;;;20.50;99.90;;;;;;6123796;23;20317;-76
2023/09/27 09:38:28;;;;;;;13.18;11.88;;;20.60;99.90;;;;;;6149863;23;20028;-76
2023/09/27 09:40:56;;;;;;;11.43;10.45;;;20.80;99.90;;;;;;6123417;23;20029;-75
2023/09/27 09:43:48;;;;;;;13.20;11.93;;;20.80;99.90;;;;;;6150280;23;20018;-76
2023/09/27 09:46:24;;;;;;;12.27;11.15;;;21.00;99.90;;;;;;6144370;23;20021;-76
2023/09/27 09:48:49;;;;;;;11.48;10.30;;;21.10;99.90;;;;;;6123326;23;20004;-75
2023/09/27 09:51:16;;;;;;;12.60;11.30;;;21.10;99.90;;;;;;6123532;23;20093;-75
2023/09/27 09:53:42;;;;;;;11.82;10.63;;;21.20;99.90;;;;;;6123831;23;20106;-76
2023/09/27 09:56:10;;;;;;;11.98;10.88;;;21.30;99.90;;;;;;6124971;23;20010;-76
2023/09/27 09:58:46;;;;;;;11.30;10.30;;;21.30;99.90;;;;;;6151995;23;20016;-76
2023/09/27 10:01:18;;;;;;;10.00;9.15;;;21.30;99.90;;;;;;6125662;23;20024;-75
2023/09/27 10:03:47;;;;;;;12.57;9.93;;;21.30;99.90;;;;;;6150957;23;20427;-75
2023/09/27 10:06:19;;;;;;;11.82;9.98;;;21.30;99.90;;;;;;6151431;23;20096;-76
2023/09/27 10:08:47;;;;;;;9.20;8.35;;;21.40;99.90;;;;;;6150622;23;20002;-76
2023/09/27 10:11:13;;;;;;;9.90;8.90;;;21.40;99.90;;;;;;6125407;23;20507;-76
2023/09/27 10:13:40;;;;;;;12.65;8.60;;;21.40;99.90;;;;;;6151826;23;20072;-77
2023/09/27 10:16:09;;;;;;;13.02;8.50;;;21.50;99.90;;;;;;6125566;23;20432;-76
2023/09/27 10:18:41;;;;;;;10.75;8.45;;;21.50;99.90;;;;;;6125056;23;20056;-75
2023/09/27 10:21:12;;;;;;;9.85;6.50;;;21.60;99.90;;;;;;6151689;23;20032;-75
2023/09/27 10:23:47;;;;;;;7.75;7.00;;;21.60;99.90;;;;;;6125360;23;20001;-75
2023/09/27 10:26:28;;;;;;;8.05;7.07;;;21.70;99.90;;;;;;6125452;23;20779;-75
2023/09/27 10:31:33;;;;;;;7.78;6.30;;;21.80;99.90;;;;;;6151733;23;20010;-75
2023/09/27 10:33:59;;;;;;;8.38;6.53;;;22.00;99.90;;;;;;6151563;23;20375;-75
2023/09/27 10:36:24;;;;;;;10.55;7.93;;;22.00;99.90;;;;;;6151790;23;20005;-75
2023/09/27 10:38:50;;;;;;;7.70;6.90;;;22.10;99.80;;;;;;6151606;23;20728;-76
2023/09/27 10:41:34;;;;;;;7.90;7.13;;;22.10;99.80;;;;;;6151571;23;19994;-76
2023/09/27 10:44:00;;;;;;;8.80;7.90;;;22.20;99.60;;;;;;6150629;23;20039;-75
2023/09/27 10:46:26;;;;;;;8.43;7.55;;;22.20;99.60;;;;;;6150776;23;20131;-75
2023/09/27 10:48:56;;;;;;;9.05;7.57;;;22.30;99.50;;;;;;6151296;23;20431;-75
2023/09/27 10:51:22;;;;;;;8.23;7.43;;;22.30;99.40;;;;;;6151578;23;20002;-76
2023/09/27 10:53:50;;;;;;;7.80;7.10;;;22.30;99.30;;;;;;6151306;23;20005;-76
2023/09/27 10:56:16;;;;;;;7.78;6.80;;;22.20;99.20;;;;;;6125220;23;20033;-76
2023/09/27 10:58:45;;;;;;;6.93;6.13;;;22.20;99.10;;;;;;6125578;23;20727;-76
2023/09/27 11:01:14;;;;;;;9.05;7.57;;;22.20;99.10;;;;;;6150269;23;20220;-76
2023/09/27 11:03:39;;;;;;;9.10;6.28;;;22.10;98.70;;;;;;6150839;23;20037;-75
2023/09/27 11:06:12;;;;;;;7.80;5.88;;;22.00;98.90;;;;;;6150624;23;20004;-76
2023/09/27 11:08:38;;;;;;;10.30;6.50;;;22.10;99.10;;;;;;6151269;23;20009;-76
2023/09/27 11:11:07;;;;;;;6.80;6.10;;;22.10;99.10;;;;;;6151007;23;20002;-76
2023/09/27 11:13:34;;;;;;;6.72;5.53;;;22.20;98.90;;;;;;6151712;23;20005;-76
2023/09/27 11:16:18;;;;;;;8.50;7.18;;;22.20;98.90;;;;;;6150282;23;20086;-76
2023/09/27 11:18:45;;;;;;;8.38;6.97;;;22.30;98.50;;;;;;6150564;23;20006;-76
2023/09/27 11:21:12;;;;;;;8.10;6.63;;;22.20;98.30;;;;;;6124637;23;20396;-76
2023/09/27 11:24:12;;;;;;;7.97;7.18;;;22.20;98.30;;;;;;6150984;23;20001;-77
2023/09/27 11:26:42;;;;;;;11.02;7.78;;;22.20;98.20;;;;;;6078452;23;20012;-76
2023/09/27 11:29:08;;;;;;;7.80;7.00;;;22.10;98.00;;;;;;6150822;23;20001;-76
2023/09/27 11:31:35;;;;;;;8.77;7.70;;;22.10;97.90;;;;;;6150991;23;20006;-76
2023/09/27 11:34:17;;;;;;;7.60;6.90;;;22.20;97.90;;;;;;6150827;23;20001;-76
2023/09/27 11:36:43;;;;;;;7.88;7.18;;;22.20;98.00;;;;;;6124756;23;20432;-77
2023/09/27 11:39:09;;;;;;;9.95;7.78;;;22.20;98.10;;;;;;6151075;23;20006;-76
2023/09/27 11:41:35;;;;;;;8.48;7.47;;;22.10;97.90;;;;;;6125158;23;20033;-76
2023/09/27 11:44:17;;;;;;;8.23;7.25;;;22.10;98.00;;;;;;6150355;23;20018;-76
2023/09/27 11:46:44;;;;;;;7.13;6.43;;;22.10;98.00;;;;;;6150836;23;20051;-76
2023/09/27 11:49:10;;;;;;;8.40;7.47;;;21.90;98.00;;;;;;6149971;23;20001;-76
2023/09/27 11:51:36;;;;;;;8.10;7.00;;;22.00;97.90;;;;;;6124549;23;20064;-76
2023/09/27 11:54:05;;;;;;;6.20;5.68;;;21.90;97.60;;;;;;6150013;23;20068;-76
2023/09/27 11:56:36;;;;;;;7.18;6.50;;;21.80;97.70;;;;;;6124575;23;20317;-76
2023/09/27 11:59:05;;;;;;;8.63;5.68;;;21.80;97.80;;;;;;6149817;23;20037;-77
2023/09/27 12:01:31;;;;;;;7.53;6.82;;;21.80;98.00;;;;;;6150466;23;20428;-76
2023/09/27 12:03:58;;;;;;;6.50;5.90;;;21.80;97.90;;;;;;6150380;23;20064;-76
2023/09/27 12:06:25;;;;;;;10.13;7.03;;;21.70;98.00;;;;;;6150404;23;20068;-77
2023/09/27 12:08:51;;;;;;;7.82;6.13;;;21.80;97.80;;;;;;6150820;23;20001;-77
2023/09/27 12:11:17;;;;;;;8.57;6.90;;;21.80;98.20;;;;;;6151007;23;19997;-77
2023/09/27 12:13:42;;;;;;;8.05;5.90;;;21.80;98.00;;;;;;6123962;23;20013;-79
2023/09/27 12:16:08;;;;;;;8.02;6.72;;;21.80;98.10;;;;;;6150598;23;19998;-77
2023/09/27 12:18:33;;;;;;;9.18;6.85;;;21.80;98.00;;;;;;6150571;23;20531;-77
2023/09/27 12:21:00;;;;;;;7.28;6.53;;;21.80;97.70;;;;;;6124591;23;20332;-77
2023/09/27 12:23:26;;;;;;;8.93;6.28;;;21.80;97.60;;;;;;6150812;23;20088;-77
2023/09/27 12:25:52;;;;;;;8.60;7.72;;;21.80;97.60;;;;;;6124594;23;20479;-77
2023/09/27 12:28:19;;;;;;;13.52;7.28;;;21.80;97.40;;;;;;6123958;23;20048;-77
2023/09/27 12:30:44;;;;;;;8.40;6.53;;;21.80;97.60;;;;;;6124673;23;20009;-77
2023/09/27 12:33:12;;;;;;;6.88;5.45;;;21.80;97.60;;;;;;6150341;23;20005;-77